sensor_id;sensor_type;location;lat;lon;timestamp;P1;durP1;ratioP1;P2;durP2;ratioP2
5137;SDS011;53959;53.626;11.410;2024-01-10T00:01:26;1231.40;;;751.37;;
5137;SDS011;53959;53.626;11.410;2024-01-10T00:03:54;1233.18;;;748.50;;
5137;SDS011;53959;53.626;11.410;2024-01-10T00:06:20;1241.63;;;758.72;;
5137;SDS011;53959;53.626;11.410;2024-01-10T00:08:45;1210.93;;;746.93;;
5137;SDS011;53959;53.626;11.410;2024-01-10T00:11:11;1190.73;;;734.33;;
5137;SDS011;53959;53.626;11.410;2024-01-10T00:13:36;1184.90;;;737.07;;
5137;SDS011;53959;53.626;11.410;2024-01-10T00:16:01;1207.80;;;739.60;;
5137;SDS011;53959;53.626;11.410;2024-01-10T00:18:27;1202.80;;;735.07;;
5137;SDS011;53959;53.626;11.410;2024-01-10T00:20:52;1187.93;;;730.57;;
5137;SDS011;53959;53.626;11.410;2024-01-10T00:23:19;1193.28;;;735.50;;
5137;SDS011;53959;53.626;11.410;2024-01-10T00:25:45;1202.85;;;737.83;;
5137;SDS011;53959;53.626;11.410;2024-01-10T00:28:10;1213.87;;;746.97;;
5137;SDS011;53959;53.626;11.410;2024-01-10T00:30:36;1162.90;;;724.00;;
5137;SDS011;53959;53.626;11.410;2024-01-10T00:33:01;1217.60;;;748.87;;
5137;SDS011;53959;53.626;11.410;2024-01-10T00:35:26;1227.37;;;758.60;;
5137;SDS011;53959;53.626;11.410;2024-01-10T00:37:52;1283.07;;;782.17;;
5137;SDS011;53959;53.626;11.410;2024-01-10T00:40:17;1204.43;;;740.20;;
5137;SDS011;53959;53.626;11.410;2024-01-10T00:42:42;1235.07;;;757.13;;
5137;SDS011;53959;53.626;11.410;2024-01-10T00:45:08;1240.93;;;765.47;;
5137;SDS011;53959;53.626;11.410;2024-01-10T00:47:33;1223.83;;;748.50;;
5137;SDS011;53959;53.626;11.410;2024-01-10T00:49:59;1240.40;;;756.00;;
5137;SDS011;53959;53.626;11.410;2024-01-10T00:52:24;1250.20;;;760.17;;
5137;SDS011;53959;53.626;11.410;2024-01-10T00:54:49;1213.97;;;749.73;;
5137;SDS011;53959;53.626;11.410;2024-01-10T00:57:15;1272.63;;;784.57;;
5137;SDS011;53959;53.626;11.410;2024-01-10T00:59:40;1240.53;;;751.87;;
5137;SDS011;53959;53.626;11.410;2024-01-10T01:02:05;1253.83;;;762.53;;
5137;SDS011;53959;53.626;11.410;2024-01-10T01:04:31;1254.17;;;758.10;;
5137;SDS011;53959;53.626;11.410;2024-01-10T01:06:56;1256.83;;;760.50;;
5137;SDS011;53959;53.626;11.410;2024-01-10T01:09:21;1303.47;;;784.13;;
5137;SDS011;53959;53.626;11.410;2024-01-10T01:11:47;1266.63;;;770.53;;
5137;SDS011;53959;53.626;11.410;2024-01-10T01:14:12;1273.03;;;774.07;;
5137;SDS011;53959;53.626;11.410;2024-01-10T01:16:37;1246.67;;;764.60;;
5137;SDS011;53959;53.626;11.410;2024-01-10T01:19:03;1279.40;;;771.53;;
5137;SDS011;53959;53.626;11.410;2024-01-10T01:21:28;1295.77;;;784.77;;
5137;SDS011;53959;53.626;11.410;2024-01-10T01:23:54;1299.73;;;783.77;;
5137;SDS011;53959;53.626;11.410;2024-01-10T01:26:19;1299.47;;;781.17;;
5137;SDS011;53959;53.626;11.410;2024-01-10T01:28:45;1295.90;;;786.00;;
5137;SDS011;53959;53.626;11.410;2024-01-10T01:31:10;1266.37;;;763.67;;
5137;SDS011;53959;53.626;11.410;2024-01-10T01:33:35;1218.87;;;745.73;;
5137;SDS011;53959;53.626;11.410;2024-01-10T01:36:01;1262.10;;;770.60;;
5137;SDS011;53959;53.626;11.410;2024-01-10T01:38:26;1243.13;;;762.93;;
5137;SDS011;53959;53.626;11.410;2024-01-10T01:40:52;1249.20;;;768.23;;
5137;SDS011;53959;53.626;11.410;2024-01-10T01:43:21;1233.83;;;763.20;;
5137;SDS011;53959;53.626;11.410;2024-01-10T01:45:51;1261.00;;;771.78;;
5137;SDS011;53959;53.626;11.410;2024-01-10T01:48:19;1179.10;;;719.65;;
5137;SDS011;53959;53.626;11.410;2024-01-10T01:50:45;1249.25;;;764.78;;
5137;SDS011;53959;53.626;11.410;2024-01-10T01:53:12;1248.65;;;760.60;;
5137;SDS011;53959;53.626;11.410;2024-01-10T01:55:38;1205.07;;;739.72;;
5137;SDS011;53959;53.626;11.410;2024-01-10T01:58:04;1268.50;;;767.33;;
5137;SDS011;53959;53.626;11.410;2024-01-10T02:00:30;1238.07;;;748.13;;
5137;SDS011;53959;53.626;11.410;2024-01-10T02:02:56;1262.90;;;757.63;;
5137;SDS011;53959;53.626;11.410;2024-01-10T02:05:24;1262.40;;;760.08;;
5137;SDS011;53959;53.626;11.410;2024-01-10T02:07:50;1212.68;;;737.17;;
5137;SDS011;53959;53.626;11.410;2024-01-10T02:10:15;1270.10;;;773.10;;
5137;SDS011;53959;53.626;11.410;2024-01-10T02:12:41;1294.37;;;780.60;;
5137;SDS011;53959;53.626;11.410;2024-01-10T02:15:06;1266.37;;;766.63;;
5137;SDS011;53959;53.626;11.410;2024-01-10T02:17:32;1281.37;;;780.77;;
5137;SDS011;53959;53.626;11.410;2024-01-10T02:22:35;1221.03;;;736.50;;
5137;SDS011;53959;53.626;11.410;2024-01-10T02:25:01;1245.57;;;760.30;;
5137;SDS011;53959;53.626;11.410;2024-01-10T02:27:26;1254.47;;;765.57;;
5137;SDS011;53959;53.626;11.410;2024-01-10T02:29:52;1265.73;;;771.70;;
5137;SDS011;53959;53.626;11.410;2024-01-10T02:32:19;1219.38;;;734.17;;
5137;SDS011;53959;53.626;11.410;2024-01-10T02:34:44;1261.40;;;763.43;;
5137;SDS011;53959;53.626;11.410;2024-01-10T02:37:10;1275.83;;;769.43;;
5137;SDS011;53959;53.626;11.410;2024-01-10T02:39:35;1276.50;;;767.83;;
5137;SDS011;53959;53.626;11.410;2024-01-10T02:42:00;1283.47;;;780.67;;
5137;SDS011;53959;53.626;11.410;2024-01-10T02:44:26;1285.90;;;778.80;;
5137;SDS011;53959;53.626;11.410;2024-01-10T02:46:53;1305.63;;;787.22;;
5137;SDS011;53959;53.626;11.410;2024-01-10T02:49:18;1269.47;;;768.50;;
5137;SDS011;53959;53.626;11.410;2024-01-10T02:51:43;1265.33;;;762.23;;
5137;SDS011;53959;53.626;11.410;2024-01-10T02:54:09;1286.50;;;770.97;;
5137;SDS011;53959;53.626;11.410;2024-01-10T02:56:34;1247.83;;;757.83;;
5137;SDS011;53959;53.626;11.410;2024-01-10T02:58:59;1301.47;;;777.93;;
5137;SDS011;53959;53.626;11.410;2024-01-10T03:01:25;1296.30;;;766.33;;
5137;SDS011;53959;53.626;11.410;2024-01-10T03:03:50;1288.10;;;773.13;;
5137;SDS011;53959;53.626;11.410;2024-01-10T03:06:15;1263.73;;;755.03;;
5137;SDS011;53959;53.626;11.410;2024-01-10T03:08:41;1274.90;;;769.73;;
5137;SDS011;53959;53.626;11.410;2024-01-10T03:11:06;1282.50;;;760.83;;
5137;SDS011;53959;53.626;11.410;2024-01-10T03:13:31;1265.33;;;757.83;;
5137;SDS011;53959;53.626;11.410;2024-01-10T03:15:57;1366.60;;;803.50;;
5137;SDS011;53959;53.626;11.410;2024-01-10T03:18:24;1304.88;;;774.83;;
5137;SDS011;53959;53.626;11.410;2024-01-10T03:20:49;1324.00;;;782.00;;
5137;SDS011;53959;53.626;11.410;2024-01-10T03:23:14;1328.23;;;792.27;;
5137;SDS011;53959;53.626;11.410;2024-01-10T03:25:40;1312.80;;;785.17;;
5137;SDS011;53959;53.626;11.410;2024-01-10T03:28:05;1297.37;;;767.70;;
5137;SDS011;53959;53.626;11.410;2024-01-10T03:30:31;1315.60;;;782.70;;
5137;SDS011;53959;53.626;11.410;2024-01-10T03:32:56;1291.47;;;768.33;;
5137;SDS011;53959;53.626;11.410;2024-01-10T03:35:21;1304.37;;;775.10;;
5137;SDS011;53959;53.626;11.410;2024-01-10T03:37:47;1255.50;;;761.87;;
5137;SDS011;53959;53.626;11.410;2024-01-10T03:40:12;1276.73;;;765.70;;
5137;SDS011;53959;53.626;11.410;2024-01-10T03:42:38;1281.00;;;759.63;;
5137;SDS011;53959;53.626;11.410;2024-01-10T03:45:03;1304.60;;;785.80;;
5137;SDS011;53959;53.626;11.410;2024-01-10T03:47:30;1261.05;;;758.58;;
5137;SDS011;53959;53.626;11.410;2024-01-10T03:49:55;1228.83;;;744.30;;
5137;SDS011;53959;53.626;11.410;2024-01-10T03:52:21;1290.63;;;773.20;;
5137;SDS011;53959;53.626;11.410;2024-01-10T03:54:46;1269.17;;;771.80;;
5137;SDS011;53959;53.626;11.410;2024-01-10T03:57:12;1289.43;;;784.73;;
5137;SDS011;53959;53.626;11.410;2024-01-10T03:59:37;1279.53;;;769.87;;
5137;SDS011;53959;53.626;11.410;2024-01-10T04:02:02;1277.70;;;760.10;;
5137;SDS011;53959;53.626;11.410;2024-01-10T04:04:30;1289.25;;;769.33;;
5137;SDS011;53959;53.626;11.410;2024-01-10T04:06:55;1273.53;;;769.10;;
5137;SDS011;53959;53.626;11.410;2024-01-10T04:09:20;1277.97;;;768.80;;
5137;SDS011;53959;53.626;11.410;2024-01-10T04:11:46;1260.70;;;759.87;;
5137;SDS011;53959;53.626;11.410;2024-01-10T04:14:11;1239.23;;;744.60;;
5137;SDS011;53959;53.626;11.410;2024-01-10T04:16:37;1259.13;;;752.90;;
5137;SDS011;53959;53.626;11.410;2024-01-10T04:19:02;1209.97;;;733.07;;
5137;SDS011;53959;53.626;11.410;2024-01-10T04:21:27;1284.20;;;771.13;;
5137;SDS011;53959;53.626;11.410;2024-01-10T04:23:52;1280.37;;;764.00;;
5137;SDS011;53959;53.626;11.410;2024-01-10T04:26:18;1280.13;;;768.20;;
5137;SDS011;53959;53.626;11.410;2024-01-10T04:28:43;1258.10;;;748.83;;
5137;SDS011;53959;53.626;11.410;2024-01-10T04:31:08;1261.97;;;762.47;;
5137;SDS011;53959;53.626;11.410;2024-01-10T04:33:34;1292.70;;;765.30;;
5137;SDS011;53959;53.626;11.410;2024-01-10T04:36:00;1291.80;;;769.80;;
5137;SDS011;53959;53.626;11.410;2024-01-10T04:38:25;1280.47;;;766.57;;
5137;SDS011;53959;53.626;11.410;2024-01-10T04:40:51;1268.38;;;762.25;;
5137;SDS011;53959;53.626;11.410;2024-01-10T04:43:17;1223.30;;;734.03;;
5137;SDS011;53959;53.626;11.410;2024-01-10T04:45:43;1262.00;;;756.00;;
5137;SDS011;53959;53.626;11.410;2024-01-10T04:48:08;1301.27;;;773.50;;
5137;SDS011;53959;53.626;11.410;2024-01-10T04:50:34;1244.10;;;744.23;;
5137;SDS011;53959;53.626;11.410;2024-01-10T04:53:00;1268.20;;;758.70;;
5137;SDS011;53959;53.626;11.410;2024-01-10T04:55:25;1249.13;;;759.10;;
5137;SDS011;53959;53.626;11.410;2024-01-10T04:57:52;1252.70;;;762.08;;
5137;SDS011;53959;53.626;11.410;2024-01-10T05:00:17;1265.63;;;767.23;;
5137;SDS011;53959;53.626;11.410;2024-01-10T05:02:43;1208.17;;;730.43;;
5137;SDS011;53959;53.626;11.410;2024-01-10T05:05:08;1288.23;;;773.60;;
5137;SDS011;53959;53.626;11.410;2024-01-10T05:07:33;1275.40;;;768.33;;
5137;SDS011;53959;53.626;11.410;2024-01-10T05:09:59;1211.70;;;729.63;;
5137;SDS011;53959;53.626;11.410;2024-01-10T05:12:24;1269.97;;;760.27;;
5137;SDS011;53959;53.626;11.410;2024-01-10T05:14:50;1262.23;;;753.33;;
5137;SDS011;53959;53.626;11.410;2024-01-10T05:17:15;1264.40;;;750.47;;
5137;SDS011;53959;53.626;11.410;2024-01-10T05:19:40;1280.13;;;771.80;;
5137;SDS011;53959;53.626;11.410;2024-01-10T05:22:06;1211.73;;;735.17;;
5137;SDS011;53959;53.626;11.410;2024-01-10T05:24:31;1280.57;;;766.50;;
5137;SDS011;53959;53.626;11.410;2024-01-10T05:26:57;1238.33;;;739.27;;
5137;SDS011;53959;53.626;11.410;2024-01-10T05:29:22;1290.13;;;769.90;;
5137;SDS011;53959;53.626;11.410;2024-01-10T05:31:49;1298.40;;;774.78;;
5137;SDS011;53959;53.626;11.410;2024-01-10T05:34:14;1292.53;;;770.80;;
5137;SDS011;53959;53.626;11.410;2024-01-10T05:36:39;1290.03;;;767.50;;
5137;SDS011;53959;53.626;11.410;2024-01-10T05:39:05;1274.90;;;767.03;;
5137;SDS011;53959;53.626;11.410;2024-01-10T05:41:30;1262.43;;;758.23;;
5137;SDS011;53959;53.626;11.410;2024-01-10T05:43:56;1292.37;;;773.67;;
5137;SDS011;53959;53.626;11.410;2024-01-10T05:46:21;1274.17;;;765.67;;
5137;SDS011;53959;53.626;11.410;2024-01-10T05:48:46;1285.10;;;770.60;;
5137;SDS011;53959;53.626;11.410;2024-01-10T05:51:13;1267.45;;;767.80;;
5137;SDS011;53959;53.626;11.410;2024-01-10T05:53:38;1306.63;;;789.77;;
5137;SDS011;53959;53.626;11.410;2024-01-10T05:56:05;1260.97;;;763.00;;
5137;SDS011;53959;53.626;11.410;2024-01-10T05:58:32;1297.25;;;778.30;;
5137;SDS011;53959;53.626;11.410;2024-01-10T06:00:57;1296.77;;;779.73;;
5137;SDS011;53959;53.626;11.410;2024-01-10T06:03:22;1251.90;;;756.90;;
5137;SDS011;53959;53.626;11.410;2024-01-10T06:05:49;1284.47;;;771.92;;
5137;SDS011;53959;53.626;11.410;2024-01-10T06:08:15;1302.60;;;772.73;;
5137;SDS011;53959;53.626;11.410;2024-01-10T06:10:41;1283.47;;;768.87;;
5137;SDS011;53959;53.626;11.410;2024-01-10T06:13:06;1306.73;;;788.43;;
5137;SDS011;53959;53.626;11.410;2024-01-10T06:15:32;1283.13;;;775.20;;
5137;SDS011;53959;53.626;11.410;2024-01-10T06:17:57;1316.07;;;789.23;;
5137;SDS011;53959;53.626;11.410;2024-01-10T06:20:23;1300.67;;;784.07;;
5137;SDS011;53959;53.626;11.410;2024-01-10T06:22:48;1292.03;;;778.10;;
5137;SDS011;53959;53.626;11.410;2024-01-10T06:25:14;1283.32;;;770.35;;
5137;SDS011;53959;53.626;11.410;2024-01-10T06:27:40;1305.93;;;778.33;;
5137;SDS011;53959;53.626;11.410;2024-01-10T06:30:06;1332.33;;;794.53;;
5137;SDS011;53959;53.626;11.410;2024-01-10T06:32:32;1318.13;;;786.17;;
5137;SDS011;53959;53.626;11.410;2024-01-10T06:34:58;1310.83;;;779.70;;
5137;SDS011;53959;53.626;11.410;2024-01-10T06:37:25;1311.00;;;776.83;;
5137;SDS011;53959;53.626;11.410;2024-01-10T06:39:50;1320.63;;;786.87;;
5137;SDS011;53959;53.626;11.410;2024-01-10T06:42:16;1335.27;;;781.97;;
5137;SDS011;53959;53.626;11.410;2024-01-10T06:44:41;1335.73;;;789.30;;
5137;SDS011;53959;53.626;11.410;2024-01-10T06:47:06;1322.50;;;780.37;;
5137;SDS011;53959;53.626;11.410;2024-01-10T06:49:32;1422.33;;;811.53;;
5137;SDS011;53959;53.626;11.410;2024-01-10T06:51:57;1364.57;;;797.87;;
5137;SDS011;53959;53.626;11.410;2024-01-10T06:54:25;1324.03;;;784.13;;
5137;SDS011;53959;53.626;11.410;2024-01-10T06:56:50;1283.87;;;756.07;;
5137;SDS011;53959;53.626;11.410;2024-01-10T06:59:16;1322.37;;;780.40;;
5137;SDS011;53959;53.626;11.410;2024-01-10T07:01:41;1283.20;;;764.20;;
5137;SDS011;53959;53.626;11.410;2024-01-10T07:04:06;1316.60;;;781.93;;
5137;SDS011;53959;53.626;11.410;2024-01-10T07:06:31;1328.50;;;781.53;;
5137;SDS011;53959;53.626;11.410;2024-01-10T07:08:57;1310.00;;;778.20;;
5137;SDS011;53959;53.626;11.410;2024-01-10T07:11:23;1326.63;;;783.05;;
5137;SDS011;53959;53.626;11.410;2024-01-10T07:13:49;1339.57;;;795.63;;
5137;SDS011;53959;53.626;11.410;2024-01-10T07:16:14;1342.70;;;796.00;;
5137;SDS011;53959;53.626;11.410;2024-01-10T07:18:41;1344.85;;;788.67;;
5137;SDS011;53959;53.626;11.410;2024-01-10T07:21:06;1359.27;;;801.63;;
5137;SDS011;53959;53.626;11.410;2024-01-10T07:23:34;1367.57;;;801.70;;
5137;SDS011;53959;53.626;11.410;2024-01-10T07:26:00;1350.00;;;799.10;;
5137;SDS011;53959;53.626;11.410;2024-01-10T07:28:25;1334.60;;;774.87;;
5137;SDS011;53959;53.626;11.410;2024-01-10T07:30:50;1366.27;;;800.13;;
5137;SDS011;53959;53.626;11.410;2024-01-10T07:33:16;1364.87;;;800.47;;
5137;SDS011;53959;53.626;11.410;2024-01-10T07:35:41;1347.60;;;783.63;;
5137;SDS011;53959;53.626;11.410;2024-01-10T07:38:06;1328.07;;;775.17;;
5137;SDS011;53959;53.626;11.410;2024-01-10T07:40:35;1338.35;;;793.67;;
5137;SDS011;53959;53.626;11.410;2024-01-10T07:43:01;1347.38;;;790.03;;
5137;SDS011;53959;53.626;11.410;2024-01-10T07:45:27;1275.70;;;757.43;;
5137;SDS011;53959;53.626;11.410;2024-01-10T07:47:52;1344.73;;;793.97;;
5137;SDS011;53959;53.626;11.410;2024-01-10T07:50:18;1285.77;;;763.37;;
5137;SDS011;53959;53.626;11.410;2024-01-10T07:52:44;1300.78;;;773.92;;
5137;SDS011;53959;53.626;11.410;2024-01-10T07:55:11;1312.70;;;780.30;;
5137;SDS011;53959;53.626;11.410;2024-01-10T07:57:37;1311.00;;;767.30;;
5137;SDS011;53959;53.626;11.410;2024-01-10T08:00:03;1322.77;;;779.07;;
5137;SDS011;53959;53.626;11.410;2024-01-10T08:02:35;1317.57;;;769.72;;
5137;SDS011;53959;53.626;11.410;2024-01-10T08:05:02;1320.73;;;788.87;;
5137;SDS011;53959;53.626;11.410;2024-01-10T08:07:31;1302.00;;;784.55;;
5137;SDS011;53959;53.626;11.410;2024-01-10T08:09:59;1354.43;;;810.85;;
5137;SDS011;53959;53.626;11.410;2024-01-10T08:12:25;1344.53;;;802.20;;
5137;SDS011;53959;53.626;11.410;2024-01-10T08:14:51;1371.27;;;818.20;;
5137;SDS011;53959;53.626;11.410;2024-01-10T08:17:16;1357.17;;;808.60;;
5137;SDS011;53959;53.626;11.410;2024-01-10T08:19:41;1356.20;;;810.30;;
5137;SDS011;53959;53.626;11.410;2024-01-10T08:22:07;1349.57;;;806.10;;
5137;SDS011;53959;53.626;11.410;2024-01-10T08:24:33;1331.17;;;795.10;;
5137;SDS011;53959;53.626;11.410;2024-01-10T08:26:58;1357.47;;;809.93;;
5137;SDS011;53959;53.626;11.410;2024-01-10T08:29:23;1365.23;;;812.00;;
5137;SDS011;53959;53.626;11.410;2024-01-10T08:31:55;1333.50;;;793.90;;
5137;SDS011;53959;53.626;11.410;2024-01-10T08:34:21;1325.93;;;782.60;;
5137;SDS011;53959;53.626;11.410;2024-01-10T08:36:47;1345.73;;;794.30;;
5137;SDS011;53959;53.626;11.410;2024-01-10T08:39:16;1333.90;;;783.75;;
5137;SDS011;53959;53.626;11.410;2024-01-10T08:41:41;1349.93;;;794.40;;
5137;SDS011;53959;53.626;11.410;2024-01-10T08:44:09;1326.45;;;785.72;;
5137;SDS011;53959;53.626;11.410;2024-01-10T08:46:37;1325.03;;;779.72;;
5137;SDS011;53959;53.626;11.410;2024-01-10T08:49:03;1349.90;;;795.07;;
5137;SDS011;53959;53.626;11.410;2024-01-10T08:51:28;1363.60;;;801.33;;
5137;SDS011;53959;53.626;11.410;2024-01-10T08:53:54;1343.40;;;780.43;;
5137;SDS011;53959;53.626;11.410;2024-01-10T08:56:19;1355.97;;;803.07;;
5137;SDS011;53959;53.626;11.410;2024-01-10T08:58:45;1343.30;;;789.37;;
5137;SDS011;53959;53.626;11.410;2024-01-10T09:01:10;1303.33;;;765.77;;
5137;SDS011;53959;53.626;11.410;2024-01-10T09:03:36;1288.50;;;759.30;;
5137;SDS011;53959;53.626;11.410;2024-01-10T09:06:02;1335.47;;;789.15;;
5137;SDS011;53959;53.626;11.410;2024-01-10T09:08:29;1270.25;;;764.42;;
5137;SDS011;53959;53.626;11.410;2024-01-10T09:10:55;1329.60;;;773.87;;
5137;SDS011;53959;53.626;11.410;2024-01-10T09:13:20;1333.87;;;777.97;;
5137;SDS011;53959;53.626;11.410;2024-01-10T09:15:45;1330.33;;;785.23;;
5137;SDS011;53959;53.626;11.410;2024-01-10T09:18:11;1338.73;;;777.80;;
5137;SDS011;53959;53.626;11.410;2024-01-10T09:20:36;1352.60;;;788.43;;
5137;SDS011;53959;53.626;11.410;2024-01-10T09:23:02;1342.60;;;786.65;;
5137;SDS011;53959;53.626;11.410;2024-01-10T09:25:28;1355.70;;;795.47;;
5137;SDS011;53959;53.626;11.410;2024-01-10T09:27:53;1364.90;;;807.53;;
5137;SDS011;53959;53.626;11.410;2024-01-10T09:30:19;1366.07;;;816.50;;
5137;SDS011;53959;53.626;11.410;2024-01-10T09:32:45;1327.90;;;782.25;;
5137;SDS011;53959;53.626;11.410;2024-01-10T09:35:11;1350.55;;;785.15;;
5137;SDS011;53959;53.626;11.410;2024-01-10T09:37:37;1366.15;;;804.70;;
5137;SDS011;53959;53.626;11.410;2024-01-10T09:40:03;1351.20;;;789.50;;
5137;SDS011;53959;53.626;11.410;2024-01-10T09:42:31;1342.72;;;795.17;;
5137;SDS011;53959;53.626;11.410;2024-01-10T09:44:58;1385.45;;;820.05;;
5137;SDS011;53959;53.626;11.410;2024-01-10T09:47:23;1382.50;;;812.40;;
5137;SDS011;53959;53.626;11.410;2024-01-10T09:49:49;1334.07;;;787.87;;
5137;SDS011;53959;53.626;11.410;2024-01-10T09:52:25;1363.80;;;800.07;;
5137;SDS011;53959;53.626;11.410;2024-01-10T09:54:55;1356.93;;;797.45;;
5137;SDS011;53959;53.626;11.410;2024-01-10T09:57:22;1355.72;;;791.88;;
5137;SDS011;53959;53.626;11.410;2024-01-10T09:59:51;1336.45;;;780.55;;
5137;SDS011;53959;53.626;11.410;2024-01-10T10:02:17;1375.85;;;808.38;;
5137;SDS011;53959;53.626;11.410;2024-01-10T10:04:49;1351.18;;;796.20;;
5137;SDS011;53959;53.626;11.410;2024-01-10T10:07:31;1348.82;;;794.88;;
5137;SDS011;53959;53.626;11.410;2024-01-10T10:10:07;1370.65;;;801.15;;
5137;SDS011;53959;53.626;11.410;2024-01-10T10:12:49;1357.03;;;798.20;;
5137;SDS011;53959;53.626;11.410;2024-01-10T10:15:20;1360.95;;;802.38;;
5137;SDS011;53959;53.626;11.410;2024-01-10T10:17:47;1361.85;;;801.25;;
5137;SDS011;53959;53.626;11.410;2024-01-10T10:20:27;1360.45;;;799.30;;
5137;SDS011;53959;53.626;11.410;2024-01-10T10:28:10;1337.97;;;783.03;;
5137;SDS011;53959;53.626;11.410;2024-01-10T10:30:36;1348.40;;;789.37;;
5137;SDS011;53959;53.626;11.410;2024-01-10T10:33:01;1331.10;;;781.27;;
5137;SDS011;53959;53.626;11.410;2024-01-10T10:35:28;1328.75;;;783.95;;
5137;SDS011;53959;53.626;11.410;2024-01-10T10:37:53;1313.90;;;778.77;;
5137;SDS011;53959;53.626;11.410;2024-01-10T10:40:19;1336.40;;;790.50;;
5137;SDS011;53959;53.626;11.410;2024-01-10T10:42:46;1351.50;;;797.47;;
5137;SDS011;53959;53.626;11.410;2024-01-10T10:45:14;1333.97;;;787.92;;
5137;SDS011;53959;53.626;11.410;2024-01-10T10:47:43;1336.45;;;791.90;;
5137;SDS011;53959;53.626;11.410;2024-01-10T10:50:21;1323.38;;;784.10;;
5137;SDS011;53959;53.626;11.410;2024-01-10T10:52:48;1320.75;;;783.28;;
5137;SDS011;53959;53.626;11.410;2024-01-10T10:55:14;1344.18;;;797.38;;
5137;SDS011;53959;53.626;11.410;2024-01-10T10:57:44;1346.75;;;792.55;;
5137;SDS011;53959;53.626;11.410;2024-01-10T11:00:22;1334.40;;;783.78;;
5137;SDS011;53959;53.626;11.410;2024-01-10T11:02:52;1334.95;;;787.17;;
5137;SDS011;53959;53.626;11.410;2024-01-10T11:05:19;1311.50;;;775.15;;
5137;SDS011;53959;53.626;11.410;2024-01-10T11:07:45;1349.82;;;793.95;;
5137;SDS011;53959;53.626;11.410;2024-01-10T11:10:30;1351.07;;;788.80;;
5137;SDS011;53959;53.626;11.410;2024-01-10T11:16:22;1261.15;;;753.20;;
5137;SDS011;53959;53.626;11.410;2024-01-10T11:22:00;1275.40;;;767.15;;
5137;SDS011;53959;53.626;11.410;2024-01-10T11:24:35;1342.18;;;793.03;;
5137;SDS011;53959;53.626;11.410;2024-01-10T11:27:07;1350.40;;;800.50;;
5137;SDS011;53959;53.626;11.410;2024-01-10T11:29:39;1331.05;;;785.70;;
5137;SDS011;53959;53.626;11.410;2024-01-10T11:32:06;1302.97;;;775.47;;
5137;SDS011;53959;53.626;11.410;2024-01-10T11:34:34;1332.95;;;790.38;;
5137;SDS011;53959;53.626;11.410;2024-01-10T11:37:09;1311.80;;;777.47;;
5137;SDS011;53959;53.626;11.410;2024-01-10T11:39:36;1337.63;;;795.85;;
5137;SDS011;53959;53.626;11.410;2024-01-10T11:42:02;1307.15;;;770.95;;
5137;SDS011;53959;53.626;11.410;2024-01-10T11:44:28;1369.13;;;800.83;;
5137;SDS011;53959;53.626;11.410;2024-01-10T11:46:54;1361.90;;;805.47;;
5137;SDS011;53959;53.626;11.410;2024-01-10T11:49:21;1365.68;;;803.33;;
5137;SDS011;53959;53.626;11.410;2024-01-10T11:51:48;1370.18;;;807.05;;
5137;SDS011;53959;53.626;11.410;2024-01-10T11:57:19;1360.20;;;807.47;;
5137;SDS011;53959;53.626;11.410;2024-01-10T11:59:47;1389.60;;;815.13;;
5137;SDS011;53959;53.626;11.410;2024-01-10T12:02:15;1381.18;;;812.22;;
5137;SDS011;53959;53.626;11.410;2024-01-10T12:04:41;1368.97;;;797.43;;
5137;SDS011;53959;53.626;11.410;2024-01-10T12:07:11;1355.45;;;798.30;;
5137;SDS011;53959;53.626;11.410;2024-01-10T12:09:37;1309.07;;;765.47;;
5137;SDS011;53959;53.626;11.410;2024-01-10T12:12:02;1350.63;;;787.60;;
5137;SDS011;53959;53.626;11.410;2024-01-10T12:14:28;1354.47;;;792.90;;
5137;SDS011;53959;53.626;11.410;2024-01-10T12:16:54;1358.63;;;796.23;;
5137;SDS011;53959;53.626;11.410;2024-01-10T12:19:19;1371.87;;;818.70;;
5137;SDS011;53959;53.626;11.410;2024-01-10T12:21:45;1330.67;;;800.30;;
5137;SDS011;53959;53.626;11.410;2024-01-10T12:24:10;1332.83;;;784.27;;
5137;SDS011;53959;53.626;11.410;2024-01-10T12:26:36;1363.53;;;797.50;;
5137;SDS011;53959;53.626;11.410;2024-01-10T12:29:08;1352.25;;;789.22;;
5137;SDS011;53959;53.626;11.410;2024-01-10T12:31:35;1366.20;;;793.53;;
5137;SDS011;53959;53.626;11.410;2024-01-10T12:34:02;1358.85;;;789.20;;
5137;SDS011;53959;53.626;11.410;2024-01-10T12:36:27;1364.17;;;804.50;;
5137;SDS011;53959;53.626;11.410;2024-01-10T12:38:53;1328.17;;;780.57;;
5137;SDS011;53959;53.626;11.410;2024-01-10T12:41:19;1332.63;;;775.13;;
5137;SDS011;53959;53.626;11.410;2024-01-10T12:44:03;1350.37;;;792.10;;
5137;SDS011;53959;53.626;11.410;2024-01-10T12:46:30;1321.95;;;769.80;;
5137;SDS011;53959;53.626;11.410;2024-01-10T12:49:00;1363.03;;;794.45;;
5137;SDS011;53959;53.626;11.410;2024-01-10T12:51:33;1365.72;;;804.50;;
5137;SDS011;53959;53.626;11.410;2024-01-10T12:54:02;1351.50;;;789.47;;
5137;SDS011;53959;53.626;11.410;2024-01-10T12:56:29;1373.85;;;805.35;;
5137;SDS011;53959;53.626;11.410;2024-01-10T12:58:55;1319.90;;;772.17;;
5137;SDS011;53959;53.626;11.410;2024-01-10T13:01:21;1367.90;;;798.40;;
5137;SDS011;53959;53.626;11.410;2024-01-10T13:03:47;1352.93;;;788.92;;
5137;SDS011;53959;53.626;11.410;2024-01-10T13:06:14;1364.53;;;809.45;;
5137;SDS011;53959;53.626;11.410;2024-01-10T13:08:39;1330.30;;;776.33;;
5137;SDS011;53959;53.626;11.410;2024-01-10T13:11:04;1376.70;;;816.23;;
5137;SDS011;53959;53.626;11.410;2024-01-10T13:13:34;1312.22;;;780.72;;
5137;SDS011;53959;53.626;11.410;2024-01-10T13:16:00;1375.60;;;797.58;;
5137;SDS011;53959;53.626;11.410;2024-01-10T13:18:25;1440.87;;;819.13;;
5137;SDS011;53959;53.626;11.410;2024-01-10T13:20:53;1378.72;;;808.10;;
5137;SDS011;53959;53.626;11.410;2024-01-10T13:23:19;1401.77;;;811.83;;
5137;SDS011;53959;53.626;11.410;2024-01-10T13:25:44;1411.10;;;810.93;;
5137;SDS011;53959;53.626;11.410;2024-01-10T13:28:09;1379.20;;;800.97;;
5137;SDS011;53959;53.626;11.410;2024-01-10T13:30:37;1396.43;;;801.67;;
5137;SDS011;53959;53.626;11.410;2024-01-10T13:33:06;1378.78;;;793.80;;
5137;SDS011;53959;53.626;11.410;2024-01-10T13:35:32;1367.23;;;785.90;;
5137;SDS011;53959;53.626;11.410;2024-01-10T13:37:58;1377.97;;;792.38;;
5137;SDS011;53959;53.626;11.410;2024-01-10T13:40:24;1418.93;;;830.53;;
5137;SDS011;53959;53.626;11.410;2024-01-10T13:42:52;1414.63;;;820.15;;
5137;SDS011;53959;53.626;11.410;2024-01-10T13:45:18;1385.68;;;807.72;;
5137;SDS011;53959;53.626;11.410;2024-01-10T13:47:44;1349.73;;;778.00;;
5137;SDS011;53959;53.626;11.410;2024-01-10T13:50:09;1390.50;;;802.23;;
5137;SDS011;53959;53.626;11.410;2024-01-10T13:52:35;1382.77;;;808.63;;
5137;SDS011;53959;53.626;11.410;2024-01-10T13:55:01;1383.03;;;800.42;;
5137;SDS011;53959;53.626;11.410;2024-01-10T13:57:29;1384.97;;;800.85;;